Time;durP1;ratioP1;P1;durP2;ratioP2;P2;SDS_P1;SDS_P2;PMS_P1;PMS_P2;Temp;Humidity;BMP_temperature;BMP_pressure;BME280_temperature;BME280_humidity;BME280_pressure;Samples;Min_cycle;Max_cycle;Signal;HPM_P1;HPM_P2
2022/12/27 00:01:43;;;;;;;9.18;2.75;;;2.90;99.90;;;;;;5112831;28;20039;-47
2022/12/27 00:04:09;;;;;;;11.27;2.75;;;2.90;99.90;;;;;;5106162;28;20035;-51
2022/12/27 00:06:35;;;;;;;8.50;2.60;;;2.80;99.90;;;;;;5104263;27;20076;-52
2022/12/27 00:09:01;;;;;;;12.45;2.63;;;2.80;99.90;;;;;;5110357;27;20036;-52
2022/12/27 00:11:28;;;;;;;7.35;2.40;;;2.90;99.90;;;;;;5111012;28;20531;-48
2022/12/27 00:13:57;;;;;;;7.50;2.33;;;2.70;99.90;;;;;;5111216;27;20394;-50
2022/12/27 00:16:23;;;;;;;10.35;2.40;;;2.70;99.90;;;;;;5110874;28;20043;-50
2022/12/27 00:18:51;;;;;;;15.68;2.80;;;2.90;99.90;;;;;;5090022;28;20482;-49
2022/12/27 00:21:18;;;;;;;8.90;2.78;;;2.80;99.90;;;;;;5111123;28;20039;-50
2022/12/27 00:23:50;;;;;;;10.30;2.75;;;2.80;99.90;;;;;;5105672;28;20402;-51
2022/12/27 00:26:28;;;;;;;10.73;2.30;;;2.90;99.90;;;;;;5113486;27;20039;-49
2022/12/27 00:28:54;;;;;;;8.32;2.17;;;2.70;99.90;;;;;;5111915;27;20077;-52
2022/12/27 00:31:21;;;;;;;11.50;2.72;;;2.70;99.90;;;;;;5112899;28;20202;-52
2022/12/27 00:33:49;;;;;;;9.70;2.67;;;3.10;99.90;;;;;;5111913;28;20043;-49
2022/12/27 00:36:17;;;;;;;14.38;3.17;;;2.80;99.90;;;;;;5111268;27;20425;-53
2022/12/27 00:38:43;;;;;;;9.27;3.00;;;2.90;99.90;;;;;;5108832;28;20071;-52
2022/12/27 00:41:10;;;;;;;10.55;2.35;;;3.10;99.90;;;;;;5110513;27;20032;-50
2022/12/27 00:43:35;;;;;;;9.98;2.20;;;3.00;99.90;;;;;;5117821;27;20389;-48
2022/12/27 00:46:02;;;;;;;11.65;2.60;;;3.10;99.90;;;;;;5094641;28;20051;-50
2022/12/27 00:48:27;;;;;;;11.70;2.53;;;3.40;99.90;;;;;;5111964;28;20056;-51
2022/12/27 00:50:59;;;;;;;13.82;2.78;;;2.90;99.90;;;;;;5111654;28;20097;-51
2022/12/27 00:53:25;;;;;;;12.15;2.20;;;3.20;99.90;;;;;;5109705;28;20036;-50
2022/12/27 00:55:51;;;;;;;11.43;2.75;;;3.20;99.90;;;;;;5092953;28;20039;-48
2022/12/27 00:58:16;;;;;;;9.30;2.83;;;3.20;99.90;;;;;;5109287;28;20077;-50
2022/12/27 01:00:42;;;;;;;14.85;2.67;;;2.90;99.90;;;;;;5112924;28;20118;-49
2022/12/27 01:03:08;;;;;;;11.10;2.90;;;3.20;99.90;;;;;;5125065;27;20031;-47
2022/12/27 01:05:37;;;;;;;11.15;2.88;;;3.30;99.90;;;;;;5111489;28;20097;-50
2022/12/27 01:08:03;;;;;;;8.80;2.97;;;3.30;99.90;;;;;;5111130;28;20087;-49
2022/12/27 01:10:30;;;;;;;7.13;2.58;;;3.20;99.90;;;;;;5113054;27;20467;-49
2022/12/27 01:12:56;;;;;;;12.95;2.97;;;3.00;99.90;;;;;;5111171;28;20024;-50
2022/12/27 01:15:22;;;;;;;11.43;2.90;;;2.90;99.90;;;;;;5118949;27;20050;-47
2022/12/27 01:17:47;;;;;;;10.30;2.90;;;3.20;99.90;;;;;;5114341;27;20031;-48
2022/12/27 01:20:13;;;;;;;16.38;3.03;;;2.90;99.90;;;;;;5108124;28;20096;-47
2022/12/27 01:22:39;;;;;;;15.75;3.35;;;3.30;99.90;;;;;;5112858;28;20505;-48
2022/12/27 01:25:05;;;;;;;15.10;3.35;;;3.30;99.90;;;;;;5118458;27;20456;-49
2022/12/27 01:27:31;;;;;;;9.57;3.17;;;3.20;99.90;;;;;;5112523;28;20478;-51
2022/12/27 01:29:56;;;;;;;12.52;2.85;;;3.10;99.90;;;;;;5110942;28;20052;-48
2022/12/27 01:32:22;;;;;;;14.30;3.40;;;3.20;99.90;;;;;;5110974;27;20585;-50
2022/12/27 01:34:49;;;;;;;12.40;3.70;;;3.00;99.90;;;;;;5112282;28;20027;-47
2022/12/27 01:37:15;;;;;;;11.80;3.50;;;3.00;99.90;;;;;;5109671;28;20069;-51
2022/12/27 01:39:41;;;;;;;15.20;3.13;;;3.10;99.90;;;;;;5112322;28;20039;-49
2022/12/27 01:45:03;;;;;;;9.05;3.55;;;3.70;99.90;;;;;;5109941;28;20044;-50
2022/12/27 01:47:38;;;;;;;11.50;3.58;;;3.70;99.90;;;;;;5109685;27;20040;-50
2022/12/27 01:50:09;;;;;;;13.93;3.55;;;3.50;99.90;;;;;;5112108;28;20036;-49
2022/12/27 01:52:49;;;;;;;18.83;3.63;;;3.50;99.90;;;;;;5109271;28;20122;-48
2022/12/27 01:55:35;;;;;;;13.75;3.30;;;3.60;99.90;;;;;;5112008;28;20035;-47
2022/12/27 01:58:26;;;;;;;11.20;3.40;;;3.50;99.90;;;;;;5110710;28;20035;-50
2022/12/27 02:00:52;;;;;;;16.75;3.40;;;3.40;99.90;;;;;;5110816;28;20061;-52
2022/12/27 02:03:52;;;;;;;14.82;3.67;;;3.50;99.90;;;;;;5111946;28;20035;-49
2022/12/27 02:06:20;;;;;;;14.07;3.05;;;3.70;99.90;;;;;;5093095;28;20044;-48
2022/12/27 02:09:04;;;;;;;14.27;3.25;;;3.40;99.90;;;;;;5107776;28;20118;-50
2022/12/27 02:11:51;;;;;;;17.02;3.40;;;3.40;99.90;;;;;;5111936;28;20036;-52
2022/12/27 02:14:47;;;;;;;13.38;3.20;;;3.60;99.90;;;;;;5112921;27;20031;-49
2022/12/27 02:17:28;;;;;;;17.50;3.47;;;3.30;99.90;;;;;;5109291;28;20040;-49
2022/12/27 02:20:17;;;;;;;12.70;3.40;;;3.70;99.90;;;;;;5110255;27;20042;-47
2022/12/27 02:26:39;;;;;;;15.35;3.28;;;3.40;99.90;;;;;;5110899;28;20562;-51
2022/12/27 02:29:20;;;;;;;10.35;2.83;;;3.70;99.90;;;;;;5107269;28;20042;-48
2022/12/27 02:31:55;;;;;;;10.57;2.80;;;3.50;99.90;;;;;;5109579;28;20051;-48
2022/12/27 02:34:29;;;;;;;10.27;2.55;;;3.50;99.90;;;;;;5111748;28;20075;-48
2022/12/27 02:37:01;;;;;;;12.35;2.58;;;3.70;99.90;;;;;;5108611;28;20062;-49
2022/12/27 02:39:30;;;;;;;13.05;3.25;;;3.60;99.90;;;;;;5116970;27;20479;-49
2022/12/27 02:53:32;;;;;;;13.02;2.78;;;3.70;99.90;;;;;;5109132;28;20205;-50
2022/12/27 02:59:04;;;;;;;14.93;2.92;;;3.30;99.90;;;;;;5109645;28;20039;-51
2022/12/27 03:05:01;;;;;;;13.38;2.67;;;3.60;99.90;;;;;;5109841;28;20040;-49
2022/12/27 03:07:34;;;;;;;11.20;2.42;;;3.20;99.90;;;;;;5110902;28;20039;-47
2022/12/27 03:16:31;;;;;;;14.85;2.67;;;3.60;99.90;;;;;;5110390;28;20040;-51
2022/12/27 03:33:11;;;;;;;11.43;2.30;;;3.60;99.90;;;;;;5108259;28;20498;-47
2022/12/27 03:33:21;;;;;;;11.20;2.78;;;3.60;99.90;;;;;;5110873;28;20451;-48
2022/12/27 03:38:46;;;;;;;14.75;2.72;;;3.60;99.90;;;;;;5110708;28;20039;-48
2022/12/27 03:44:23;;;;;;;15.65;3.28;;;3.70;99.90;;;;;;5107618;28;20077;-50
2022/12/27 03:46:54;;;;;;;9.60;2.75;;;3.30;99.90;;;;;;5106604;28;20099;-49
2022/12/27 03:49:37;;;;;;;14.60;2.63;;;4.60;99.90;;;;;;5109150;28;20081;-49
2022/12/27 03:52:24;;;;;;;8.50;2.20;;;3.90;99.90;;;;;;5110430;28;20039;-49
2022/12/27 03:54:50;;;;;;;11.93;2.58;;;4.00;99.90;;;;;;5110326;28;20067;-49
2022/12/27 03:57:19;;;;;;;11.60;2.40;;;4.10;99.90;;;;;;5107535;28;20038;-50
2022/12/27 03:59:45;;;;;;;9.73;2.45;;;3.50;99.90;;;;;;5116405;28;20042;-48
2022/12/27 04:02:11;;;;;;;11.68;2.88;;;3.80;99.90;;;;;;5108977;28;20031;-49
2022/12/27 04:04:37;;;;;;;11.82;3.00;;;4.10;99.90;;;;;;5109235;28;20386;-49
2022/12/27 04:07:04;;;;;;;13.85;2.97;;;4.20;99.90;;;;;;5110496;28;20096;-50
2022/12/27 04:36:53;;;;;;;11.48;2.28;;;4.20;99.90;;;;;;5113053;28;19969;-49
2022/12/27 04:39:18;;;;;;;12.15;2.40;;;3.80;99.90;;;;;;5111989;28;20052;-50
2022/12/27 04:55:34;;;;;;;9.77;2.70;;;3.70;99.90;;;;;;5110144;28;20043;-48
2022/12/27 04:57:59;;;;;;;16.73;2.95;;;3.80;99.90;;;;;;5112690;27;20027;-48
2022/12/27 05:03:20;;;;;;;15.23;2.70;;;4.30;99.90;;;;;;5111553;28;20075;-52
2022/12/27 05:05:47;;;;;;;16.20;3.75;;;3.70;99.90;;;;;;5112832;28;20534;-47
2022/12/27 05:13:58;;;;;;;15.48;2.88;;;3.80;99.90;;;;;;5110325;28;20040;-51
2022/12/27 05:16:25;;;;;;;17.60;2.97;;;3.50;99.90;;;;;;5111533;28;20055;-49
2022/12/27 05:18:51;;;;;;;14.05;3.08;;;3.70;99.90;;;;;;5112615;28;20114;-52
2022/12/27 05:21:17;;;;;;;13.10;3.33;;;3.70;99.90;;;;;;5112651;28;20035;-48
2022/12/27 05:26:28;;;;;;;;;;;3.80;99.90;;;;;;5111892;28;20458;-51
2022/12/27 05:28:56;;;;;;;11.13;3.42;;;3.30;99.90;;;;;;5112421;28;19966;-47
2022/12/27 05:31:23;;;;;;;16.75;3.53;;;3.80;99.90;;;;;;5108568;28;20478;-49
2022/12/27 05:33:50;;;;;;;13.13;3.75;;;3.20;99.90;;;;;;5110347;28;20040;-50
2022/12/27 05:36:16;;;;;;;16.17;3.72;;;3.30;99.90;;;;;;5112672;28;20145;-50
2022/12/27 05:38:42;;;;;;;16.25;3.47;;;3.60;99.90;;;;;;5111577;28;20122;-49
2022/12/27 05:41:08;;;;;;;17.58;3.53;;;3.50;99.90;;;;;;5112341;27;20477;-48
2022/12/27 05:43:34;;;;;;;12.93;3.50;;;3.50;99.90;;;;;;5111009;28;20088;-49
2022/12/27 05:46:15;;;;;;;18.90;3.75;;;3.50;99.90;;;;;;5110768;27;20048;-48
2022/12/27 05:48:41;;;;;;;17.40;3.50;;;3.90;99.90;;;;;;5112249;28;20490;-49
2022/12/27 05:51:12;;;;;;;14.30;3.83;;;4.00;99.90;;;;;;5112783;27;20074;-50
2022/12/27 05:53:39;;;;;;;16.52;3.42;;;4.00;99.90;;;;;;5109704;28;20487;-48
2022/12/27 05:56:05;;;;;;;15.15;3.92;;;3.80;99.90;;;;;;5111803;28;20114;-50
2022/12/27 05:58:31;;;;;;;10.93;3.47;;;3.30;99.90;;;;;;5111746;28;20039;-50
2022/12/27 06:00:57;;;;;;;16.17;4.45;;;3.40;99.90;;;;;;5109774;28;20039;-49
2022/12/27 06:03:23;;;;;;;18.48;4.00;;;3.70;99.90;;;;;;5108751;28;20082;-48
2022/12/27 06:05:49;;;;;;;14.30;3.53;;;3.40;99.90;;;;;;5126315;27;20071;-48
2022/12/27 06:08:15;;;;;;;22.67;4.07;;;3.40;99.90;;;;;;5109128;28;20125;-52
2022/12/27 06:10:41;;;;;;;18.02;3.88;;;3.40;99.90;;;;;;5111976;28;20118;-51
2022/12/27 06:13:06;;;;;;;13.85;3.70;;;4.10;99.90;;;;;;5111669;28;20504;-48
2022/12/27 06:15:32;;;;;;;19.17;3.90;;;3.30;99.90;;;;;;5110959;28;20043;-47
2022/12/27 06:17:59;;;;;;;12.93;3.70;;;3.40;99.90;;;;;;5110193;28;20046;-52
2022/12/27 06:20:25;;;;;;;17.65;4.63;;;3.70;99.90;;;;;;5111684;28;20110;-51
2022/12/27 06:22:51;;;;;;;18.77;4.18;;;3.80;99.90;;;;;;5108343;28;20085;-49
2022/12/27 06:25:17;;;;;;;16.73;3.85;;;3.10;99.90;;;;;;5111424;27;20505;-52
2022/12/27 06:27:42;;;;;;;13.95;3.95;;;3.70;99.90;;;;;;5111233;28;20054;-49
2022/12/27 06:30:11;;;;;;;18.92;4.45;;;3.10;99.90;;;;;;5111649;28;20077;-51
2022/12/27 06:32:36;;;;;;;10.75;3.55;;;3.20;99.90;;;;;;5109404;27;20100;-52
2022/12/27 06:35:02;;;;;;;15.27;3.70;;;3.80;99.90;;;;;;5111503;27;20032;-50
2022/12/27 06:37:29;;;;;;;15.70;4.10;;;3.30;99.90;;;;;;5109918;28;20039;-53
2022/12/27 06:39:55;;;;;;;19.70;4.05;;;3.80;99.90;;;;;;5111444;28;20035;-51
2022/12/27 06:42:21;;;;;;;15.85;4.40;;;3.40;99.90;;;;;;5110330;28;20047;-49
2022/12/27 06:44:47;;;;;;;18.38;4.55;;;3.10;99.90;;;;;;5107448;28;20028;-49
2022/12/27 06:47:12;;;;;;;15.20;3.95;;;3.80;99.90;;;;;;5109337;28;20201;-49
2022/12/27 06:49:38;;;;;;;16.55;3.70;;;3.30;99.90;;;;;;5110650;28;20217;-48
2022/12/27 06:52:04;;;;;;;11.82;4.07;;;3.90;99.90;;;;;;5106403;28;20027;-49
2022/12/27 06:54:29;;;;;;;14.20;4.22;;;3.10;99.90;;;;;;5110895;28;20428;-49
2022/12/27 06:56:55;;;;;;;17.55;4.10;;;3.20;99.90;;;;;;5110898;28;20047;-50
2022/12/27 06:59:22;;;;;;;12.63;3.70;;;3.20;99.90;;;;;;5110897;28;20331;-48
2022/12/27 07:01:48;;;;;;;17.08;4.05;;;3.40;99.90;;;;;;5108567;28;20423;-46
2022/12/27 07:04:14;;;;;;;16.52;4.05;;;3.40;99.90;;;;;;5111100;28;20043;-49
2022/12/27 07:06:39;;;;;;;17.27;3.90;;;3.20;99.90;;;;;;5110028;28;20482;-49
2022/12/27 07:09:06;;;;;;;20.80;4.25;;;3.10;99.90;;;;;;5110978;28;20039;-48
2022/12/27 07:11:35;;;;;;;15.55;3.15;;;3.00;99.90;;;;;;5109968;28;20123;-47
2022/12/27 07:14:02;;;;;;;21.92;4.18;;;3.80;99.90;;;;;;5110553;28;20084;-50
2022/12/27 07:16:29;;;;;;;16.92;3.50;;;3.40;99.90;;;;;;5108140;28;20592;-50
2022/12/27 07:18:56;;;;;;;12.32;3.22;;;4.00;99.90;;;;;;5109336;28;20546;-49
2022/12/27 07:21:24;;;;;;;15.73;3.33;;;3.80;99.90;;;;;;5107826;28;20043;-49
2022/12/27 07:23:50;;;;;;;13.15;4.03;;;3.20;99.90;;;;;;5110784;28;20114;-48
2022/12/27 07:26:22;;;;;;;15.88;3.88;;;3.20;99.90;;;;;;5129446;28;20131;-48
2022/12/27 07:28:48;;;;;;;17.50;3.85;;;3.90;99.90;;;;;;5131289;27;20038;-49
2022/12/27 07:31:17;;;;;;;12.20;3.80;;;3.40;99.90;;;;;;5108427;28;20134;-50
2022/12/27 07:33:43;;;;;;;11.60;3.67;;;3.90;99.90;;;;;;5111436;28;20047;-48
2022/12/27 07:36:13;;;;;;;20.65;3.65;;;3.50;99.90;;;;;;5108713;28;20028;-49
2022/12/27 07:38:38;;;;;;;17.42;4.18;;;4.00;99.90;;;;;;5109717;28;20035;-48
2022/12/27 07:41:04;;;;;;;18.77;3.90;;;3.50;99.90;;;;;;5109592;28;20044;-49
2022/12/27 07:43:32;;;;;;;14.05;3.60;;;4.10;99.90;;;;;;5104835;28;20466;-51
2022/12/27 07:46:09;;;;;;;19.02;4.00;;;4.00;99.90;;;;;;5103915;28;20059;-51
2022/12/27 07:48:35;;;;;;;16.48;3.70;;;4.10;99.90;;;;;;5106571;28;20097;-47
2022/12/27 07:51:01;;;;;;;17.05;3.88;;;4.10;99.90;;;;;;5102265;28;20035;-47
2022/12/27 07:53:28;;;;;;;15.98;4.53;;;4.70;99.90;;;;;;5099589;28;20035;-51
2022/12/27 07:55:53;;;;;;;11.32;3.88;;;3.60;99.90;;;;;;5094173;27;20040;-49
2022/12/27 07:58:19;;;;;;;13.35;4.63;;;3.30;99.90;;;;;;5102703;28;20042;-50
2022/12/27 08:00:47;;;;;;;14.93;3.80;;;3.30;99.90;;;;;;5108366;28;20032;-48
2022/12/27 08:03:13;;;;;;;16.73;4.30;;;3.60;99.90;;;;;;5105871;28;20039;-48
2022/12/27 08:05:51;;;;;;;12.55;3.90;;;3.90;99.90;;;;;;5110943;27;20038;-49
2022/12/27 08:08:21;;;;;;;12.60;4.10;;;3.50;99.90;;;;;;5108364;27;20043;-47
2022/12/27 08:10:47;;;;;;;15.65;4.38;;;3.40;99.90;;;;;;5103788;28;20032;-52
2022/12/27 08:13:12;;;;;;;16.55;4.20;;;3.80;99.90;;;;;;5106484;28;20047;-52
2022/12/27 08:15:40;;;;;;;14.73;4.28;;;3.40;99.90;;;;;;5104869;28;20054;-47
2022/12/27 08:18:06;;;;;;;21.83;4.72;;;3.70;99.90;;;;;;5109122;27;20027;-49
2022/12/27 08:20:32;;;;;;;17.15;4.43;;;3.90;99.90;;;;;;5108591;28;21146;-49
2022/12/27 08:22:57;;;;;;;22.80;4.45;;;3.70;99.90;;;;;;5105008;27;20035;-50
2022/12/27 08:25:23;;;;;;;17.80;4.93;;;3.90;99.90;;;;;;5105137;28;20036;-48
2022/12/27 08:27:49;;;;;;;15.80;4.50;;;3.40;99.90;;;;;;5103580;27;20482;-48
2022/12/27 08:30:15;;;;;;;12.00;4.05;;;3.70;99.90;;;;;;5107275;28;20047;-50
2022/12/27 08:32:40;;;;;;;17.90;4.57;;;3.70;99.90;;;;;;5108988;28;20071;-48
2022/12/27 08:35:06;;;;;;;20.15;5.00;;;3.90;99.90;;;;;;5100776;27;20471;-50
2022/12/27 08:37:32;;;;;;;17.33;4.32;;;3.50;99.90;;;;;;5104555;28;20032;-48
2022/12/27 08:39:58;;;;;;;15.80;4.03;;;3.90;99.90;;;;;;5106942;28;20050;-48
2022/12/27 08:42:24;;;;;;;22.08;4.95;;;3.40;99.90;;;;;;5105539;27;20583;-52
2022/12/27 08:44:49;;;;;;;14.50;4.45;;;3.60;99.90;;;;;;5104911;28;20101;-48
2022/12/27 08:47:15;;;;;;;22.83;5.05;;;4.50;99.90;;;;;;5103223;28;20101;-47
2022/12/27 08:49:41;;;;;;;19.15;4.68;;;3.50;99.90;;;;;;5107322;27;20032;-48
2022/12/27 08:52:07;;;;;;;14.75;4.43;;;4.10;99.90;;;;;;5118006;27;20038;-51
2022/12/27 08:54:32;;;;;;;16.30;4.68;;;3.70;99.90;;;;;;5110974;27;20047;-50
2022/12/27 08:56:58;;;;;;;23.85;5.57;;;3.70;99.90;;;;;;5103677;27;20446;-48
2022/12/27 08:59:24;;;;;;;15.93;4.80;;;4.30;99.90;;;;;;5106256;27;20036;-50
2022/12/27 09:01:49;;;;;;;15.63;4.32;;;3.90;99.90;;;;;;5106128;28;20428;-51
2022/12/27 09:04:15;;;;;;;21.58;4.75;;;4.30;99.90;;;;;;5102536;27;20062;-49
2022/12/27 09:06:41;;;;;;;14.93;4.50;;;4.70;99.90;;;;;;5101169;28;20047;-48
2022/12/27 09:09:06;;;;;;;18.50;4.53;;;4.20;99.90;;;;;;5098300;28;20555;-50
2022/12/27 09:11:33;;;;;;;14.95;5.00;;;4.00;99.90;;;;;;5104773;27;20395;-50
2022/12/27 09:14:02;;;;;;;19.77;4.47;;;4.10;99.90;;;;;;5108096;28;20221;-49
2022/12/27 09:16:29;;;;;;;25.33;5.68;;;4.20;99.90;;;;;;5109035;28;20050;-52
2022/12/27 09:18:57;;;;;;;14.02;3.88;;;3.90;99.90;;;;;;5108593;28;20032;-48
2022/12/27 09:21:25;;;;;;;15.13;4.13;;;4.10;99.90;;;;;;5109643;27;20039;-48
2022/12/27 09:23:51;;;;;;;16.83;4.90;;;4.00;99.90;;;;;;5108480;27;20031;-51
2022/12/27 09:26:19;;;;;;;14.65;4.78;;;4.30;99.90;;;;;;5107483;28;21748;-52
2022/12/27 09:28:45;;;;;;;22.23;4.70;;;4.70;99.90;;;;;;5100243;27;20036;-49
2022/12/27 09:31:13;;;;;;;14.77;3.85;;;4.30;99.90;;;;;;5106927;28;20039;-49
2022/12/27 09:33:39;;;;;;;17.77;4.18;;;4.30;99.90;;;;;;5103170;27;20387;-52
2022/12/27 09:36:15;;;;;;;15.48;4.38;;;4.60;99.90;;;;;;5102725;28;20036;-49
2022/12/27 09:38:42;;;;;;;21.60;4.40;;;4.30;99.90;;;;;;5106044;27;20031;-48
2022/12/27 09:41:21;;;;;;;15.60;3.63;;;5.10;99.90;;;;;;5105197;27;20047;-49
2022/12/27 09:43:53;;;;;;;13.85;3.60;;;4.60;99.90;;;;;;5096867;28;20036;-49
2022/12/27 09:46:25;;;;;;;13.13;3.83;;;4.50;99.90;;;;;;5096943;28;20047;-47
2022/12/27 09:48:53;;;;;;;12.70;3.65;;;4.80;99.90;;;;;;5103103;27;20039;-50
2022/12/27 09:51:39;;;;;;;16.65;3.90;;;4.70;99.90;;;;;;5100463;28;20123;-48
2022/12/27 09:54:20;;;;;;;14.18;3.47;;;5.00;99.90;;;;;;5104862;28;20035;-50
2022/12/27 09:56:46;;;;;;;16.85;3.42;;;5.10;99.90;;;;;;5103418;28;20495;-51
2022/12/27 09:59:24;;;;;;;13.73;3.50;;;4.90;99.90;;;;;;5109838;27;20131;-51
2022/12/27 10:01:50;;;;;;;14.45;3.53;;;4.80;99.90;;;;;;5106194;27;20262;-49
2022/12/27 10:04:17;;;;;;;13.75;3.75;;;5.00;99.90;;;;;;5107973;28;20089;-51
2022/12/27 10:06:49;;;;;;;11.60;3.40;;;5.30;99.90;;;;;;5101739;28;20051;-53
2022/12/27 10:09:15;;;;;;;13.45;3.55;;;4.90;99.90;;;;;;5107379;28;20059;-47
2022/12/27 10:12:06;;;;;;;12.45;3.55;;;5.20;99.90;;;;;;5103474;27;20031;-50
2022/12/27 10:14:55;;;;;;;14.35;3.40;;;5.30;99.90;;;;;;5100351;27;20104;-48
2022/12/27 10:17:53;;;;;;;11.57;3.10;;;5.10;99.90;;;;;;5101538;27;20324;-51
2022/12/27 10:20:30;;;;;;;12.00;2.92;;;5.40;99.90;;;;;;5091130;28;20490;-51
2022/12/27 10:23:03;;;;;;;13.35;3.20;;;5.30;99.90;;;;;;5102363;28;20063;-50
2022/12/27 10:25:30;;;;;;;11.57;2.80;;;5.70;99.90;;;;;;5099068;27;20054;-48
2022/12/27 10:28:10;;;;;;;13.98;2.88;;;6.00;99.90;;;;;;5098461;27;20070;-51
2022/12/27 10:30:36;;;;;;;12.45;3.00;;;6.20;99.90;;;;;;5105216;27;20048;-48
2022/12/27 10:33:01;;;;;;;11.73;2.38;;;6.20;99.90;;;;;;5105454;28;20059;-48
2022/12/27 10:35:27;;;;;;;12.20;2.95;;;6.20;99.90;;;;;;5103525;28;20043;-53
2022/12/27 10:37:55;;;;;;;12.05;2.92;;;6.50;99.90;;;;;;5105473;27;20107;-52
2022/12/27 10:40:34;;;;;;;11.55;2.03;;;6.80;99.90;;;;;;5104488;28;20043;-49
2022/12/27 10:43:09;;;;;;;14.30;2.78;;;6.90;99.90;;;;;;5105702;28;20407;-47
2022/12/27 10:45:41;;;;;;;14.75;3.47;;;7.00;99.90;;;;;;5105066;28;20432;-50
2022/12/27 10:48:24;;;;;;;10.70;2.67;;;7.30;99.90;;;;;;5106230;28;20062;-48
2022/12/27 10:50:56;;;;;;;15.10;2.67;;;7.30;99.90;;;;;;5101581;28;20032;-50
2022/12/27 10:53:37;;;;;;;13.63;2.95;;;7.50;99.90;;;;;;5097663;27;20088;-50
2022/12/27 10:56:11;;;;;;;12.02;2.63;;;7.70;99.90;;;;;;5098075;27;20761;-53
2022/12/27 10:58:43;;;;;;;13.63;2.70;;;7.70;99.90;;;;;;5101005;28;20058;-50
2022/12/27 11:01:24;;;;;;;14.00;3.03;;;7.60;99.90;;;;;;5097837;27;20058;-51
2022/12/27 11:03:52;;;;;;;10.07;2.85;;;7.40;99.90;;;;;;5101361;27;20039;-50
2022/12/27 11:06:23;;;;;;;18.75;3.47;;;7.10;99.90;;;;;;5105071;28;20670;-50
2022/12/27 11:08:50;;;;;;;8.95;3.05;;;7.00;99.90;;;;;;5099542;28;20466;-48
2022/12/27 11:11:23;;;;;;;15.68;3.00;;;7.00;99.90;;;;;;5097693;28;20047;-47
2022/12/27 11:13:51;;;;;;;16.13;3.00;;;7.10;99.90;;;;;;5096350;28;20047;-49
2022/12/27 11:16:33;;;;;;;16.23;4.00;;;7.10;99.90;;;;;;5100187;28;20047;-49
2022/12/27 11:19:00;;;;;;;11.57;3.33;;;7.00;99.90;;;;;;5103919;28;20093;-51
2022/12/27 11:21:28;;;;;;;10.57;2.80;;;6.90;99.90;;;;;;5100792;28;20040;-49
2022/12/27 11:24:03;;;;;;;10.63;2.80;;;6.80;99.90;;;;;;5100762;28;20372;-49
2022/12/27 11:26:41;;;;;;;13.30;3.20;;;6.80;99.90;;;;;;5108464;28;20044;-52
2022/12/27 11:29:16;;;;;;;15.43;3.40;;;6.80;99.90;;;;;;5109079;28;20110;-50
2022/12/27 11:31:47;;;;;;;15.65;3.13;;;6.80;99.90;;;;;;5111134;28;20154;-50
2022/12/27 11:34:24;;;;;;;8.23;2.90;;;6.80;99.90;;;;;;5109281;28;20494;-47
2022/12/27 11:36:53;;;;;;;10.38;3.38;;;6.80;99.90;;;;;;5109494;27;20051;-51
2022/12/27 11:39:51;;;;;;;13.43;3.20;;;6.70;99.90;;;;;;5109992;28;20456;-49
2022/12/27 11:42:31;;;;;;;12.02;3.50;;;6.60;99.90;;;;;;5103546;28;20036;-51
2022/12/27 11:45:11;;;;;;;18.08;3.90;;;6.50;99.90;;;;;;5117638;27;20039;-50
2022/12/27 11:47:46;;;;;;;11.65;3.97;;;6.40;99.90;;;;;;5098540;27;20482;-51
2022/12/27 11:50:27;;;;;;;16.55;4.65;;;6.40;99.90;;;;;;5101794;28;20050;-53
2022/12/27 11:53:10;;;;;;;18.50;4.53;;;6.30;99.90;;;;;;5103545;27;20100;-52
2022/12/27 11:56:04;;;;;;;14.63;4.37;;;6.20;99.90;;;;;;5106619;28;20051;-52
2022/12/27 11:58:50;;;;;;;16.77;4.38;;;6.20;99.90;;;;;;5098442;28;20293;-49
2022/12/27 12:01:53;;;;;;;14.48;4.20;;;6.10;99.90;;;;;;5103596;27;20168;-50
2022/12/27 12:04:35;;;;;;;16.50;4.53;;;6.10;99.90;;;;;;5107753;28;20044;-51
2022/12/27 12:07:09;;;;;;;16.25;4.25;;;6.20;99.90;;;;;;5101819;28;20493;-51
2022/12/27 12:10:09;;;;;;;12.25;3.90;;;6.10;99.90;;;;;;5110079;27;20092;-51
2022/12/27 12:13:31;;;;;;;14.48;4.38;;;6.00;99.90;;;;;;5109164;28;20180;-52
2022/12/27 12:16:35;;;;;;;15.40;3.70;;;6.20;99.90;;;;;;5030650;28;20037;-52
2022/12/27 12:19:37;;;;;;;12.20;4.20;;;6.20;99.90;;;;;;5027854;28;20049;-50
2022/12/27 12:22:42;;;;;;;13.98;4.38;;;6.40;99.90;;;;;;5107456;28;20055;-47
2022/12/27 12:25:29;;;;;;;17.40;4.40;;;6.50;99.90;;;;;;5111257;28;20043;-54
2022/12/27 12:28:22;;;;;;;13.48;4.60;;;6.40;99.90;;;;;;5103157;27;20043;-47
2022/12/27 12:31:17;;;;;;;12.65;5.18;;;6.40;99.90;;;;;;5110129;28;20464;-49
2022/12/27 12:34:41;;;;;;;15.45;5.28;;;6.40;99.90;;;;;;5089613;28;20048;-49
2022/12/27 12:37:36;;;;;;;19.77;6.20;;;6.40;99.90;;;;;;5012152;28;20053;-49
2022/12/27 12:40:16;;;;;;;16.42;6.50;;;6.40;99.90;;;;;;5109629;28;20386;-50
2022/12/27 12:43:10;;;;;;;20.27;6.72;;;6.30;99.90;;;;;;5108288;28;20086;-48
2022/12/27 12:46:09;;;;;;;16.95;6.22;;;6.30;99.90;;;;;;5109934;28;20110;-49
2022/12/27 12:49:06;;;;;;;15.48;6.35;;;6.40;99.90;;;;;;5107537;28;20096;-52
2022/12/27 12:51:43;;;;;;;20.00;6.70;;;6.50;99.90;;;;;;5108530;28;20036;-50
2022/12/27 12:54:30;;;;;;;11.63;6.00;;;6.60;99.90;;;;;;5106637;28;20149;-48
2022/12/27 12:57:33;;;;;;;17.08;6.50;;;6.70;99.90;;;;;;5109199;28;20378;-51
2022/12/27 13:00:08;;;;;;;11.48;5.80;;;6.80;99.90;;;;;;5109390;28;20142;-49
2022/12/27 13:03:11;;;;;;;13.40;5.95;;;6.90;99.90;;;;;;5100953;28;20039;-48
2022/12/27 13:06:00;;;;;;;11.65;6.65;;;7.10;99.90;;;;;;5101769;28;20054;-48
2022/12/27 13:08:34;;;;;;;18.13;6.07;;;7.30;99.90;;;;;;5100380;28;20090;-48
2022/12/27 13:11:05;;;;;;;13.98;6.72;;;7.30;99.90;;;;;;5100810;28;20032;-48
2022/12/27 13:13:49;;;;;;;14.80;7.30;;;7.30;99.90;;;;;;5101449;28;20028;-49
2022/12/27 13:16:43;;;;;;;16.55;6.50;;;7.30;99.90;;;;;;5105129;28;20050;-53
2022/12/27 13:19:41;;;;;;;15.40;6.20;;;7.20;99.90;;;;;;5099043;28;20039;-48
2022/12/27 13:22:22;;;;;;;14.02;6.85;;;7.10;99.90;;;;;;5107130;27;20393;-48
2022/12/27 13:25:23;;;;;;;15.90;7.90;;;7.10;99.90;;;;;;5107265;27;20499;-47
2022/12/27 13:28:02;;;;;;;19.25;8.23;;;6.90;99.90;;;;;;5106286;28;20067;-48
2022/12/27 13:30:55;;;;;;;17.95;8.45;;;6.90;99.90;;;;;;5108412;27;20106;-52
2022/12/27 13:33:33;;;;;;;17.13;8.70;;;6.80;99.90;;;;;;5106294;28;20078;-47
2022/12/27 13:36:14;;;;;;;15.85;8.95;;;6.90;99.90;;;;;;5105446;27;20265;-49
2022/12/27 13:38:58;;;;;;;19.48;8.45;;;6.90;99.90;;;;;;5098675;28;20051;-49
2022/12/27 13:41:36;;;;;;;16.80;8.90;;;7.00;99.90;;;;;;5088856;28;20039;-48
2022/12/27 13:44:09;;;;;;;15.75;9.00;;;7.00;99.90;;;;;;5106400;27;20043;-48
2022/12/27 13:46:56;;;;;;;18.25;8.50;;;7.10;99.90;;;;;;5106586;28;20039;-47
2022/12/27 13:49:37;;;;;;;18.77;9.05;;;7.20;99.90;;;;;;5106820;28;20459;-52
2022/12/27 13:52:36;;;;;;;15.60;8.18;;;7.20;99.90;;;;;;5107870;27;20046;-48
2022/12/27 13:55:29;;;;;;;16.10;8.32;;;7.20;99.90;;;;;;5105023;28;20031;-50
2022/12/27 13:58:16;;;;;;;17.52;8.40;;;7.10;99.90;;;;;;5104158;28;20047;-48
2022/12/27 14:01:16;;;;;;;11.82;7.88;;;7.00;99.90;;;;;;5104374;28;20094;-50
2022/12/27 14:03:48;;;;;;;16.38;8.40;;;7.00;99.90;;;;;;5107293;27;20050;-48
2022/12/27 14:06:43;;;;;;;17.35;8.93;;;7.00;99.90;;;;;;5105606;27;20039;-47
2022/12/27 14:09:37;;;;;;;17.92;9.02;;;6.90;99.90;;;;;;5107179;27;20528;-47
2022/12/27 14:12:14;;;;;;;17.55;9.93;;;6.80;99.90;;;;;;5104445;28;20490;-47
2022/12/27 14:14:42;;;;;;;13.90;9.05;;;6.80;99.90;;;;;;5105160;28;20044;-47
2022/12/27 14:17:25;;;;;;;21.80;9.65;;;6.80;99.90;;;;;;5103537;28;20092;-49
2022/12/27 14:20:03;;;;;;;16.60;9.13;;;6.80;99.90;;;;;;5104289;28;20039;-47
2022/12/27 14:22:47;;;;;;;19.73;9.60;;;6.70;99.90;;;;;;5106526;28;20047;-48
2022/12/27 14:25:18;;;;;;;16.40;9.25;;;6.70;99.90;;;;;;5103416;28;20043;-48
2022/12/27 14:28:23;;;;;;;19.30;9.60;;;6.70;99.90;;;;;;5105465;28;20039;-47
2022/12/27 14:31:26;;;;;;;17.13;9.43;;;6.60;99.90;;;;;;5105534;28;20052;-50
2022/12/27 14:34:15;;;;;;;17.52;9.93;;;6.60;99.90;;;;;;5104681;28;20378;-48
2022/12/27 14:36:53;;;;;;;18.65;10.00;;;6.50;99.90;;;;;;5102860;28;20050;-49
2022/12/27 14:39:32;;;;;;;18.73;9.98;;;6.50;99.90;;;;;;5104225;28;20372;-50
2022/12/27 14:42:43;;;;;;;18.65;10.63;;;6.50;99.90;;;;;;5107550;27;20046;-51
2022/12/27 14:45:34;;;;;;;19.30;10.05;;;6.50;99.90;;;;;;5105473;28;20050;-50
2022/12/27 14:48:05;;;;;;;14.38;9.95;;;6.50;99.90;;;;;;5101455;28;20036;-49
2022/12/27 14:51:00;;;;;;;20.02;10.55;;;6.40;99.90;;;;;;5102446;28;20031;-51
2022/12/27 14:53:52;;;;;;;18.17;9.65;;;6.40;99.90;;;;;;5083959;28;20142;-49
2022/12/27 14:56:26;;;;;;;17.67;9.68;;;6.40;99.90;;;;;;5106600;28;20390;-49
2022/12/27 14:59:06;;;;;;;18.83;9.75;;;6.30;99.90;;;;;;5106450;28;20040;-48
2022/12/27 15:01:47;;;;;;;17.23;9.77;;;6.50;99.90;;;;;;5104715;28;20044;-48
2022/12/27 15:04:41;;;;;;;16.30;9.65;;;6.20;99.90;;;;;;5097724;28;20043;-48